Time;durP1;ratioP1;P1;durP2;ratioP2;P2;SDS_P1;SDS_P2;PMS_P1;PMS_P2;Temp;Humidity;BMP_temperature;BMP_pressure;BME280_temperature;BME280_humidity;BME280_pressure;Samples;Min_cycle;Max_cycle;Signal;HPM_P1;HPM_P2
2024/02/12 00:01:31;;;;;;;0.30;0.30;;;14.00;99.90;;;;;;5105702;28;20446;-78
2024/02/12 00:03:57;;;;;;;0.30;0.30;;;14.10;99.90;;;;;;5105953;28;20440;-78
2024/02/12 00:06:22;;;;;;;0.30;0.20;;;14.10;99.90;;;;;;5104043;28;20211;-77
2024/02/12 00:08:48;;;;;;;0.30;0.20;;;14.10;99.90;;;;;;5104516;28;20448;-77
2024/02/12 00:11:14;;;;;;;0.30;0.20;;;14.10;99.90;;;;;;5105132;28;20450;-78
2024/02/12 00:13:39;;;;;;;0.30;0.20;;;14.10;99.90;;;;;;5104257;28;20448;-78
2024/02/12 00:16:06;;;;;;;0.30;0.20;;;14.10;99.90;;;;;;5105548;28;20180;-77
2024/02/12 00:18:32;;;;;;;0.30;0.20;;;14.10;99.90;;;;;;5104312;28;20262;-78
2024/02/12 00:20:58;;;;;;;0.30;0.20;;;14.00;99.90;;;;;;5105732;28;20978;-78
2024/02/12 00:23:23;;;;;;;2.37;2.27;;;14.00;99.90;;;;;;5105969;28;20460;-77
2024/02/12 00:25:49;;;;;;;0.30;0.20;;;13.90;99.90;;;;;;5105526;28;20179;-78
2024/02/12 00:28:15;;;;;;;0.30;0.30;;;13.90;99.90;;;;;;5103830;28;20195;-78
2024/02/12 00:30:40;;;;;;;1.43;1.37;;;13.90;99.90;;;;;;5104197;28;20753;-78
2024/02/12 00:33:09;;;;;;;0.30;0.20;;;13.90;99.90;;;;;;5103883;28;20202;-78
2024/02/12 00:35:36;;;;;;;0.30;0.20;;;13.90;99.90;;;;;;5105529;28;20180;-78
2024/02/12 00:38:03;;;;;;;0.30;0.20;;;13.90;99.90;;;;;;5103048;28;21397;-77
2024/02/12 00:40:29;;;;;;;0.30;0.20;;;13.80;99.90;;;;;;5104962;28;20384;-78
2024/02/12 00:42:57;;;;;;;2.63;2.43;;;13.80;99.90;;;;;;5103850;28;20534;-78
2024/02/12 00:45:23;;;;;;;0.30;0.20;;;13.80;99.90;;;;;;5105357;28;20404;-77
2024/02/12 00:47:50;;;;;;;1.73;1.70;;;13.70;99.90;;;;;;5105137;28;20432;-78
2024/02/12 00:50:17;;;;;;;0.30;0.20;;;13.70;99.90;;;;;;5105260;28;20695;-78
2024/02/12 00:52:43;;;;;;;0.30;0.30;;;13.60;99.90;;;;;;5103574;28;20513;-77
2024/02/12 00:55:15;;;;;;;0.30;0.20;;;13.50;99.90;;;;;;5105160;28;20932;-78
2024/02/12 00:57:41;;;;;;;0.30;0.20;;;13.50;99.90;;;;;;5107231;28;20435;-77
2024/02/12 01:00:14;;;;;;;5.53;5.00;;;13.40;99.90;;;;;;5108965;28;20830;-77
2024/02/12 01:02:40;;;;;;;0.30;0.20;;;13.40;99.90;;;;;;5107227;28;20447;-77
2024/02/12 01:05:10;;;;;;;0.30;0.20;;;13.30;99.90;;;;;;5107458;28;20435;-77
2024/02/12 01:07:36;;;;;;;0.97;0.90;;;13.20;99.90;;;;;;5107525;28;20423;-78
2024/02/12 01:10:06;;;;;;;0.30;0.20;;;13.20;99.90;;;;;;5107391;28;20428;-78
2024/02/12 01:12:31;;;;;;;0.30;0.20;;;13.10;99.90;;;;;;5106801;28;20491;-78
2024/02/12 01:14:59;;;;;;;0.30;0.20;;;13.10;99.90;;;;;;5108672;28;20835;-77
2024/02/12 01:17:27;;;;;;;0.90;0.73;;;13.00;99.90;;;;;;5108045;28;20164;-78
2024/02/12 01:19:53;;;;;;;0.30;0.20;;;12.90;99.90;;;;;;5107324;28;20944;-78
2024/02/12 01:22:19;;;;;;;0.40;0.40;;;12.90;99.90;;;;;;5108507;28;20400;-77
2024/02/12 01:24:46;;;;;;;0.30;0.20;;;12.80;99.90;;;;;;5108426;28;20824;-77
2024/02/12 01:27:12;;;;;;;0.30;0.20;;;12.70;99.90;;;;;;5106660;28;20755;-77
2024/02/12 01:29:42;;;;;;;0.30;0.30;;;12.70;99.90;;;;;;5108306;28;20487;-78
2024/02/12 01:32:09;;;;;;;0.30;0.20;;;12.60;99.90;;;;;;5106643;28;20491;-77
2024/02/12 01:34:40;;;;;;;0.30;0.20;;;12.60;99.90;;;;;;5108654;28;20423;-77
2024/02/12 01:37:06;;;;;;;0.30;0.20;;;12.60;99.90;;;;;;5107558;28;20404;-78
2024/02/12 01:39:32;;;;;;;0.30;0.20;;;12.50;99.90;;;;;;5106558;28;20501;-78
2024/02/12 01:41:58;;;;;;;0.30;0.20;;;12.40;99.90;;;;;;5106475;28;20729;-77
2024/02/12 01:44:25;;;;;;;0.30;0.30;;;12.40;99.90;;;;;;5108543;28;20405;-77
2024/02/12 01:46:50;;;;;;;0.30;0.20;;;12.40;99.90;;;;;;5107976;28;20180;-78
2024/02/12 01:49:19;;;;;;;0.30;0.20;;;12.30;99.90;;;;;;5106794;28;20202;-77
2024/02/12 01:51:48;;;;;;;0.30;0.20;;;12.30;99.90;;;;;;5106497;28;20302;-78
2024/02/12 01:54:17;;;;;;;0.30;0.30;;;12.30;99.90;;;;;;5108192;28;20397;-77
2024/02/12 01:56:46;;;;;;;0.30;0.20;;;12.30;99.90;;;;;;5107727;28;20309;-77
2024/02/12 01:59:18;;;;;;;0.70;0.70;;;12.30;99.90;;;;;;5108267;28;20240;-77
2024/02/12 02:01:47;;;;;;;0.30;0.20;;;12.20;99.90;;;;;;5107710;28;20164;-77
2024/02/12 02:04:13;;;;;;;0.30;0.20;;;12.20;99.90;;;;;;5107522;28;20187;-77
2024/02/12 02:06:39;;;;;;;0.30;0.20;;;12.20;99.90;;;;;;5105116;28;20590;-76
2024/02/12 02:09:07;;;;;;;0.30;0.20;;;12.10;99.90;;;;;;5108016;28;20765;-77
2024/02/12 02:11:33;;;;;;;0.30;0.20;;;12.10;99.90;;;;;;5105470;28;20240;-78
2024/02/12 02:13:59;;;;;;;0.30;0.20;;;12.00;99.90;;;;;;5106064;28;20244;-76
2024/02/12 02:16:25;;;;;;;0.30;0.20;;;12.00;99.90;;;;;;5107301;28;20168;-76
2024/02/12 02:18:52;;;;;;;0.33;0.30;;;11.90;99.90;;;;;;5107632;28;20545;-77
2024/02/12 02:21:21;;;;;;;0.30;0.20;;;11.80;99.90;;;;;;5107202;28;20619;-77
2024/02/12 02:23:47;;;;;;;0.30;0.20;;;11.80;99.90;;;;;;5105693;28;20200;-78
2024/02/12 02:26:13;;;;;;;0.30;0.20;;;11.80;99.90;;;;;;5107363;28;20167;-77
2024/02/12 02:28:39;;;;;;;0.30;0.20;;;11.70;99.90;;;;;;5107224;28;20261;-78
2024/02/12 02:31:05;;;;;;;0.30;0.20;;;11.70;99.90;;;;;;5107360;28;20569;-76
2024/02/12 02:33:31;;;;;;;0.30;0.20;;;11.60;99.90;;;;;;5107522;28;20527;-78
2024/02/12 02:35:57;;;;;;;0.30;0.20;;;11.60;99.90;;;;;;5105321;28;20187;-77
2024/02/12 02:38:23;;;;;;;0.30;0.20;;;11.60;99.90;;;;;;5107091;28;20646;-78
2024/02/12 02:40:49;;;;;;;1.17;1.17;;;11.60;99.90;;;;;;5104568;28;20915;-77
2024/02/12 02:43:17;;;;;;;0.97;0.97;;;11.60;99.90;;;;;;5106069;28;20352;-78
2024/02/12 02:45:43;;;;;;;0.30;0.20;;;11.60;99.90;;;;;;5107003;28;20654;-78
2024/02/12 02:48:09;;;;;;;0.30;0.20;;;11.60;99.90;;;;;;5106956;28;20215;-76
2024/02/12 02:50:34;;;;;;;0.30;0.20;;;11.50;99.90;;;;;;5107162;28;20450;-76
2024/02/12 02:53:04;;;;;;;0.30;0.20;;;11.50;99.90;;;;;;5106604;28;20187;-78
2024/02/12 02:55:30;;;;;;;0.30;0.20;;;11.50;99.90;;;;;;5106714;28;20202;-78
2024/02/12 02:58:01;;;;;;;0.30;0.20;;;11.50;99.90;;;;;;5105316;28;20435;-78
2024/02/12 03:00:27;;;;;;;0.30;0.20;;;11.50;99.90;;;;;;5106851;28;20245;-77
2024/02/12 03:02:53;;;;;;;0.30;0.20;;;11.50;99.90;;;;;;5104955;28;20679;-76
2024/02/12 03:05:19;;;;;;;0.30;0.20;;;11.50;99.90;;;;;;5105437;28;20176;-77
2024/02/12 03:07:48;;;;;;;0.40;0.20;;;11.50;99.90;;;;;;5106188;28;20386;-78
2024/02/12 03:10:16;;;;;;;2.25;2.05;;;11.50;99.90;;;;;;5105992;28;21009;-78
2024/02/12 03:12:45;;;;;;;0.30;0.20;;;11.60;99.90;;;;;;5106213;28;20211;-78
2024/02/12 03:15:14;;;;;;;0.30;0.20;;;11.60;99.90;;;;;;5106363;28;20199;-78
2024/02/12 03:17:44;;;;;;;0.30;0.20;;;11.50;99.90;;;;;;5105774;28;20208;-77
2024/02/12 03:20:16;;;;;;;0.30;0.20;;;11.50;99.90;;;;;;5106413;28;20172;-78
2024/02/12 03:22:42;;;;;;;0.30;0.20;;;11.50;99.90;;;;;;5104329;28;20196;-77
2024/02/12 03:25:11;;;;;;;0.30;0.20;;;11.50;99.90;;;;;;5106354;28;20183;-77
2024/02/12 03:27:38;;;;;;;0.30;0.20;;;11.50;99.90;;;;;;5105882;28;20222;-77
2024/02/12 03:30:06;;;;;;;0.30;0.20;;;11.50;99.90;;;;;;5106066;28;20363;-77
2024/02/12 03:32:32;;;;;;;0.30;0.20;;;11.50;99.90;;;;;;5105913;27;20695;-77
2024/02/12 03:34:59;;;;;;;0.30;0.20;;;11.50;99.90;;;;;;5106297;28;20172;-78
2024/02/12 03:37:25;;;;;;;0.30;0.20;;;11.50;99.90;;;;;;5105997;28;20467;-78
2024/02/12 03:39:53;;;;;;;0.30;0.20;;;11.50;99.90;;;;;;5106095;28;20494;-77
2024/02/12 03:42:26;;;;;;;0.40;0.40;;;11.40;99.90;;;;;;5103759;28;20408;-78
2024/02/12 03:44:53;;;;;;;1.02;0.93;;;11.40;99.90;;;;;;5103979;28;20418;-77
2024/02/12 03:47:27;;;;;;;0.30;0.20;;;11.40;99.90;;;;;;5105401;28;20167;-76
2024/02/12 04:00:52;;;;;;;0.30;0.20;;;11.30;99.90;;;;;;5105958;28;20664;-77
2024/02/12 04:03:19;;;;;;;0.30;0.20;;;11.30;99.90;;;;;;5104290;28;20207;-76
2024/02/12 04:05:45;;;;;;;0.30;0.20;;;11.30;99.90;;;;;;5105635;28;20178;-77
2024/02/12 04:08:11;;;;;;;0.30;0.20;;;11.20;99.90;;;;;;5105567;28;20657;-77
2024/02/12 04:10:37;;;;;;;0.30;0.27;;;11.20;99.90;;;;;;5104340;28;20888;-76
2024/02/12 04:13:04;;;;;;;0.30;0.20;;;11.20;99.90;;;;;;5105228;28;20684;-77
2024/02/12 04:15:30;;;;;;;0.30;0.20;;;11.20;99.90;;;;;;5105931;28;20569;-78
2024/02/12 04:17:56;;;;;;;0.30;0.20;;;11.20;99.90;;;;;;5105062;28;20302;-77
2024/02/12 04:20:22;;;;;;;0.30;0.20;;;11.20;99.90;;;;;;5106169;28;20857;-77
2024/02/12 04:22:48;;;;;;;0.30;0.20;;;11.20;99.90;;;;;;5105359;28;20493;-76
2024/02/12 04:25:19;;;;;;;0.30;0.20;;;11.30;99.90;;;;;;5105688;28;20172;-77
2024/02/12 04:27:45;;;;;;;0.30;0.20;;;11.30;99.90;;;;;;5103837;28;20199;-78
2024/02/12 04:30:11;;;;;;;0.30;0.20;;;11.30;99.90;;;;;;5107134;28;20570;-77
2024/02/12 04:32:37;;;;;;;0.30;0.20;;;11.40;99.90;;;;;;5109272;28;20749;-77
2024/02/12 04:35:03;;;;;;;0.30;0.20;;;11.30;99.90;;;;;;5109525;28;20297;-77
2024/02/12 04:37:33;;;;;;;0.30;0.20;;;11.40;99.90;;;;;;5108154;28;20419;-78
2024/02/12 04:39:59;;;;;;;0.30;0.20;;;11.30;99.90;;;;;;5107671;28;20706;-77
2024/02/12 04:42:24;;;;;;;0.30;0.20;;;11.30;99.90;;;;;;5108699;28;20233;-76
2024/02/12 04:44:50;;;;;;;0.30;0.20;;;11.30;99.90;;;;;;5109252;28;20404;-77
2024/02/12 04:47:16;;;;;;;1.27;0.47;;;11.30;99.90;;;;;;5107837;28;20176;-78
2024/02/12 04:49:43;;;;;;;0.30;0.20;;;11.30;99.90;;;;;;5109355;28;20183;-79
2024/02/12 04:52:08;;;;;;;0.30;0.20;;;11.30;99.90;;;;;;5107960;28;20348;-77
2024/02/12 04:54:34;;;;;;;0.30;0.20;;;11.30;99.90;;;;;;5111716;27;20311;-78
2024/02/12 04:57:00;;;;;;;0.30;0.20;;;11.30;99.90;;;;;;5096014;28;20177;-79
2024/02/12 04:59:25;;;;;;;0.30;0.20;;;11.30;99.90;;;;;;5102176;28;20260;-77
2024/02/12 05:01:54;;;;;;;0.30;0.20;;;11.30;99.90;;;;;;5101688;28;20397;-76
2024/02/12 05:04:20;;;;;;;0.30;0.30;;;11.30;99.90;;;;;;5098448;28;20727;-77
2024/02/12 05:06:46;;;;;;;4.43;1.77;;;11.30;99.90;;;;;;5094424;28;20184;-77
2024/02/12 05:09:12;;;;;;;0.30;0.20;;;11.30;99.90;;;;;;5087397;28;20204;-77
2024/02/12 05:11:39;;;;;;;0.30;0.20;;;11.40;99.90;;;;;;5086656;28;20262;-76
2024/02/12 05:14:05;;;;;;;0.30;0.20;;;11.40;99.90;;;;;;5086811;28;20281;-77
2024/02/12 05:16:32;;;;;;;0.30;0.20;;;11.40;99.90;;;;;;5095747;28;20184;-77
2024/02/12 05:24:28;;;;;;;0.30;0.20;;;11.30;99.90;;;;;;5107856;28;20198;-76
2024/02/12 05:26:56;;;;;;;0.30;0.20;;;11.40;99.90;;;;;;5104944;27;20576;-77
2024/02/12 05:29:25;;;;;;;0.30;0.20;;;11.40;99.90;;;;;;5095144;28;20615;-77
2024/02/12 05:31:51;;;;;;;0.30;0.30;;;11.40;99.90;;;;;;5102187;28;20290;-77
2024/02/12 05:34:21;;;;;;;0.40;0.20;;;11.40;99.90;;;;;;5101602;28;20688;-77
2024/02/12 05:36:51;;;;;;;0.30;0.20;;;11.50;99.90;;;;;;5090110;28;20185;-76
2024/02/12 05:39:21;;;;;;;0.30;0.20;;;11.50;99.90;;;;;;5094698;28;20581;-77
2024/02/12 05:41:47;;;;;;;0.30;0.20;;;11.50;99.90;;;;;;5122672;27;20175;-77
2024/02/12 05:44:13;;;;;;;0.30;0.20;;;11.60;99.90;;;;;;5128308;27;20286;-76
2024/02/12 05:46:39;;;;;;;0.30;0.20;;;11.60;99.90;;;;;;5096858;28;20245;-78
2024/02/12 05:49:06;;;;;;;0.30;0.20;;;11.60;99.90;;;;;;5095150;28;20435;-79
2024/02/12 05:51:33;;;;;;;0.30;0.20;;;11.60;99.90;;;;;;5097025;28;20704;-77
2024/02/12 05:54:00;;;;;;;0.30;0.28;;;11.60;99.90;;;;;;5095199;28;20272;-77
2024/02/12 05:56:26;;;;;;;0.30;0.20;;;11.60;99.90;;;;;;5085236;28;20168;-78
2024/02/12 05:58:52;;;;;;;0.30;0.20;;;11.60;99.90;;;;;;5095193;28;20696;-77
2024/02/12 06:01:18;;;;;;;0.30;0.20;;;11.60;99.90;;;;;;5104729;28;20250;-77
2024/02/12 06:03:43;;;;;;;2.00;1.90;;;11.50;99.90;;;;;;5105373;28;20956;-77
2024/02/12 06:06:09;;;;;;;0.30;0.20;;;11.50;99.90;;;;;;5103810;28;20232;-76
2024/02/12 06:08:35;;;;;;;5.70;2.27;;;11.60;99.90;;;;;;5105107;28;20287;-77
2024/02/12 06:11:01;;;;;;;6.30;1.90;;;11.60;99.90;;;;;;5105086;28;20231;-77
2024/02/12 06:13:26;;;;;;;0.30;0.20;;;11.60;99.90;;;;;;5106971;28;20551;-77
2024/02/12 06:15:52;;;;;;;0.30;0.20;;;11.60;99.90;;;;;;5103752;28;20184;-78
2024/02/12 06:18:19;;;;;;;0.30;0.20;;;11.70;99.90;;;;;;5093657;28;20581;-77
2024/02/12 06:20:44;;;;;;;0.30;0.20;;;11.70;99.90;;;;;;5122675;27;20645;-78
2024/02/12 06:23:10;;;;;;;0.30;0.20;;;11.70;99.90;;;;;;5105901;28;20206;-78
2024/02/12 06:25:35;;;;;;;0.30;0.20;;;11.70;99.90;;;;;;5105406;28;20258;-78
2024/02/12 06:28:05;;;;;;;0.30;0.20;;;11.60;99.90;;;;;;5104552;28;20242;-78
2024/02/12 06:30:30;;;;;;;0.30;0.20;;;11.50;99.90;;;;;;5104484;28;20240;-78
2024/02/12 06:32:56;;;;;;;0.30;0.30;;;11.40;99.90;;;;;;5104215;28;20215;-77
2024/02/12 06:35:23;;;;;;;0.30;0.20;;;11.40;99.90;;;;;;5104231;28;20198;-77
2024/02/12 06:37:49;;;;;;;0.30;0.20;;;11.30;99.90;;;;;;5092921;28;20196;-76
2024/02/12 06:40:14;;;;;;;0.40;0.40;;;11.30;99.90;;;;;;5101433;28;20183;-76
2024/02/12 06:42:42;;;;;;;0.30;0.20;;;11.20;99.90;;;;;;5096435;28;20210;-77
2024/02/12 06:45:08;;;;;;;0.30;0.20;;;11.20;99.90;;;;;;5095418;28;20634;-76
2024/02/12 06:47:33;;;;;;;0.30;0.30;;;11.10;99.90;;;;;;5095349;28;20172;-77
2024/02/12 06:49:59;;;;;;;2.03;1.93;;;11.10;99.90;;;;;;5098683;28;20509;-77
2024/02/12 06:52:25;;;;;;;2.80;2.70;;;11.10;99.90;;;;;;5101298;28;20779;-78
2024/02/12 06:54:50;;;;;;;2.93;2.83;;;11.10;99.90;;;;;;5104854;28;20806;-78
2024/02/12 06:57:17;;;;;;;6.07;5.83;;;11.10;99.90;;;;;;5103835;28;20286;-78
2024/02/12 06:59:42;;;;;;;0.30;0.20;;;11.10;99.90;;;;;;5106055;28;20342;-78
2024/02/12 07:02:09;;;;;;;0.30;0.30;;;11.10;99.90;;;;;;5103696;28;20641;-79
2024/02/12 07:04:35;;;;;;;0.30;0.30;;;11.10;99.90;;;;;;5104743;28;20203;-79
2024/02/12 07:07:03;;;;;;;0.30;0.20;;;11.20;99.90;;;;;;5104076;28;20172;-79
2024/02/12 07:09:28;;;;;;;0.40;0.40;;;11.20;99.90;;;;;;5091778;28;20439;-78
2024/02/12 07:11:54;;;;;;;0.40;0.40;;;11.20;99.90;;;;;;5086615;28;20232;-77
2024/02/12 07:14:20;;;;;;;0.30;0.20;;;11.30;99.90;;;;;;5097712;28;20230;-79
2024/02/12 07:16:47;;;;;;;0.30;0.20;;;11.30;99.90;;;;;;5092739;28;20680;-79
2024/02/12 07:19:13;;;;;;;0.30;0.20;;;11.30;99.90;;;;;;5097089;28;20191;-78
2024/02/12 07:21:39;;;;;;;4.83;1.43;;;11.30;99.90;;;;;;5090972;28;20207;-79
2024/02/12 07:24:05;;;;;;;0.30;0.20;;;11.30;99.90;;;;;;5081331;28;20227;-78
2024/02/12 07:26:31;;;;;;;0.30;0.20;;;11.30;99.90;;;;;;5098864;28;20798;-79
2024/02/12 07:28:57;;;;;;;0.30;0.20;;;11.30;99.90;;;;;;5099487;27;20306;-79
2024/02/12 07:31:23;;;;;;;0.30;0.20;;;11.40;99.90;;;;;;5103766;28;20247;-79
2024/02/12 07:33:48;;;;;;;0.33;0.33;;;11.40;99.90;;;;;;5101431;28;20203;-78
2024/02/12 07:36:15;;;;;;;0.30;0.20;;;11.40;99.90;;;;;;5112108;27;20608;-79
2024/02/12 07:38:40;;;;;;;0.30;0.20;;;11.50;99.90;;;;;;5092265;28;20203;-78
2024/02/12 07:41:06;;;;;;;0.30;0.20;;;11.50;99.90;;;;;;5099800;28;20184;-79
2024/02/12 07:43:32;;;;;;;0.30;0.20;;;11.60;99.90;;;;;;5099840;28;20398;-78
2024/02/12 07:45:58;;;;;;;0.30;0.20;;;11.60;99.90;;;;;;5092958;28;20598;-80
2024/02/12 07:48:24;;;;;;;0.30;0.20;;;11.70;99.90;;;;;;5097408;28;20791;-78
2024/02/12 07:50:53;;;;;;;0.30;0.20;;;11.70;99.90;;;;;;5115116;27;20451;-79
2024/02/12 07:53:25;;;;;;;0.30;0.20;;;11.70;99.90;;;;;;5076614;28;20197;-79
2024/02/12 07:55:52;;;;;;;0.30;0.20;;;11.60;99.90;;;;;;5079095;28;20164;-80
2024/02/12 07:58:20;;;;;;;0.30;0.20;;;11.60;99.90;;;;;;5095535;28;20451;-79
2024/02/12 08:00:48;;;;;;;0.50;0.47;;;11.60;99.90;;;;;;5097833;28;20514;-78
2024/02/12 08:03:19;;;;;;;0.30;0.20;;;11.60;99.90;;;;;;5096920;28;20277;-80
2024/02/12 08:05:49;;;;;;;0.30;0.20;;;11.60;99.90;;;;;;5089164;28;20236;-80
2024/02/12 08:08:19;;;;;;;0.30;0.20;;;11.70;99.90;;;;;;5063588;28;20739;-78
2024/02/12 08:10:45;;;;;;;0.30;0.20;;;11.70;99.90;;;;;;5083532;28;20219;-80
2024/02/12 08:13:11;;;;;;;0.30;0.20;;;11.80;99.90;;;;;;5089476;28;20216;-79
2024/02/12 08:15:37;;;;;;;0.30;0.20;;;11.80;99.90;;;;;;5088517;28;20176;-80
2024/02/12 08:18:08;;;;;;;0.30;0.20;;;12.00;99.90;;;;;;5083316;28;20238;-78
2024/02/12 08:20:35;;;;;;;0.30;0.20;;;12.10;99.90;;;;;;5093843;28;20596;-78
2024/02/12 08:23:03;;;;;;;0.30;0.20;;;12.20;99.90;;;;;;5099836;28;20737;-79
2024/02/12 08:25:28;;;;;;;0.30;0.20;;;12.30;99.90;;;;;;5102429;28;20436;-78
2024/02/12 08:27:55;;;;;;;0.30;0.20;;;12.40;99.90;;;;;;5099108;28;21141;-80
2024/02/12 08:30:21;;;;;;;0.30;0.20;;;12.50;99.90;;;;;;5102444;28;20594;-78
2024/02/12 08:32:47;;;;;;;0.30;0.20;;;12.50;99.90;;;;;;5098976;28;20598;-78
2024/02/12 08:35:13;;;;;;;0.30;0.20;;;12.50;99.90;;;;;;5122137;27;20461;-80
2024/02/12 08:37:39;;;;;;;0.30;0.20;;;12.60;99.90;;;;;;5106362;28;21241;-79
2024/02/12 08:40:07;;;;;;;0.30;0.20;;;12.50;99.90;;;;;;5121517;27;20416;-79
2024/02/12 08:42:33;;;;;;;0.30;0.20;;;12.60;99.90;;;;;;5120400;27;20505;-80
2024/02/12 08:45:00;;;;;;;0.93;0.93;;;12.60;99.90;;;;;;5107868;27;20228;-78
2024/02/12 08:47:26;;;;;;;0.30;0.20;;;12.70;99.90;;;;;;5102882;28;20747;-79
2024/02/12 08:49:53;;;;;;;0.30;0.20;;;12.70;99.90;;;;;;5090290;28;20483;-80
2024/02/12 08:52:19;;;;;;;0.40;0.40;;;12.70;99.90;;;;;;5105683;28;20832;-79
2024/02/12 08:54:45;;;;;;;0.30;0.20;;;12.70;99.90;;;;;;5105278;28;20618;-80
2024/02/12 08:57:14;;;;;;;0.30;0.20;;;12.70;99.90;;;;;;5104706;27;20932;-79
2024/02/12 08:59:42;;;;;;;0.30;0.23;;;12.70;99.90;;;;;;5106681;28;21016;-80
2024/02/12 09:02:08;;;;;;;0.30;0.20;;;12.70;99.90;;;;;;5104139;28;20465;-80
2024/02/12 09:04:33;;;;;;;0.30;0.20;;;12.70;99.90;;;;;;5105052;28;20534;-80
2024/02/12 09:07:03;;;;;;;0.30;0.20;;;12.70;99.90;;;;;;5097091;28;20179;-79
2024/02/12 09:09:29;;;;;;;0.30;0.20;;;12.70;99.90;;;;;;5102544;28;20202;-78
2024/02/12 09:11:55;;;;;;;0.30;0.20;;;12.70;99.90;;;;;;5097316;27;20909;-80
2024/02/12 09:14:22;;;;;;;0.30;0.20;;;12.80;99.90;;;;;;5096697;28;20688;-80
2024/02/12 09:16:49;;;;;;;1.37;1.27;;;12.80;99.90;;;;;;5101823;28;20180;-79
2024/02/12 09:19:16;;;;;;;0.30;0.20;;;12.80;99.90;;;;;;5098943;28;20452;-80
2024/02/12 09:21:42;;;;;;;0.30;0.20;;;12.80;99.90;;;;;;5099941;28;20538;-80
2024/02/12 09:24:08;;;;;;;0.30;0.20;;;12.80;99.90;;;;;;5102571;28;20211;-80
2024/02/12 09:26:35;;;;;;;0.40;0.40;;;12.80;99.90;;;;;;5098014;28;20420;-80
2024/02/12 09:29:01;;;;;;;0.30;0.20;;;12.80;99.90;;;;;;5100274;28;20452;-78
2024/02/12 09:31:28;;;;;;;0.30;0.20;;;12.90;99.90;;;;;;5108717;27;20524;-78
2024/02/12 09:33:55;;;;;;;0.40;0.40;;;12.90;99.90;;;;;;5100005;28;20838;-79
2024/02/12 09:36:22;;;;;;;0.30;0.20;;;12.90;99.90;;;;;;5100644;28;20424;-80
2024/02/12 09:38:50;;;;;;;0.30;0.20;;;12.90;99.90;;;;;;5091362;28;21117;-78
2024/02/12 09:41:16;;;;;;;0.30;0.20;;;12.90;99.90;;;;;;5092866;28;20854;-80
2024/02/12 09:43:46;;;;;;;0.67;0.67;;;12.90;99.90;;;;;;5097552;28;20471;-78
2024/02/12 09:46:15;;;;;;;0.30;0.20;;;12.90;99.90;;;;;;5094108;28;20785;-79
2024/02/12 09:48:41;;;;;;;0.30;0.20;;;12.90;99.90;;;;;;5095994;28;20611;-80
2024/02/12 09:51:09;;;;;;;0.30;0.20;;;12.90;99.90;;;;;;5087554;28;20854;-79
2024/02/12 09:53:38;;;;;;;0.30;0.20;;;12.90;99.90;;;;;;5103191;28;20442;-80
2024/02/12 09:56:04;;;;;;;0.30;0.20;;;13.00;99.90;;;;;;5093155;28;20424;-78
2024/02/12 09:58:33;;;;;;;0.30;0.20;;;13.00;99.90;;;;;;5094829;28;20486;-80
2024/02/12 10:01:01;;;;;;;0.30;0.30;;;13.00;99.90;;;;;;5093288;28;20424;-78
2024/02/12 10:03:28;;;;;;;0.57;0.57;;;13.00;99.90;;;;;;5091855;28;20476;-78
2024/02/12 10:05:53;;;;;;;0.30;0.23;;;13.00;99.90;;;;;;5104381;28;20680;-80
2024/02/12 10:08:26;;;;;;;0.30;0.20;;;13.10;99.90;;;;;;5105013;28;20554;-78
2024/02/12 10:10:53;;;;;;;3.27;1.90;;;13.10;99.90;;;;;;5108806;27;20239;-79
2024/02/12 10:13:20;;;;;;;0.30;0.20;;;13.20;99.90;;;;;;5103018;28;20588;-78
2024/02/12 10:15:47;;;;;;;2.80;2.63;;;13.20;99.90;;;;;;5099322;28;20427;-80
2024/02/12 10:18:15;;;;;;;0.30;0.20;;;13.20;99.90;;;;;;5091398;28;20535;-77
2024/02/12 10:20:44;;;;;;;0.30;0.20;;;13.20;99.90;;;;;;5100532;28;20396;-78
2024/02/12 10:23:12;;;;;;;0.30;0.20;;;13.30;99.90;;;;;;5103003;28;20485;-80
2024/02/12 10:25:40;;;;;;;0.30;0.20;;;13.30;99.90;;;;;;5102421;28;20484;-78
2024/02/12 10:28:06;;;;;;;0.30;0.20;;;13.30;99.90;;;;;;5095961;28;20584;-78
2024/02/12 10:30:32;;;;;;;0.30;0.20;;;13.30;99.90;;;;;;5102376;28;20420;-78
2024/02/12 10:33:05;;;;;;;0.30;0.20;;;13.40;99.90;;;;;;5105516;27;20481;-79
2024/02/12 10:35:31;;;;;;;0.30;0.20;;;13.40;99.90;;;;;;5100957;28;20692;-80
2024/02/12 10:37:57;;;;;;;0.30;0.20;;;13.40;99.90;;;;;;5103023;28;20971;-78
2024/02/12 10:40:32;;;;;;;0.30;0.20;;;13.50;99.90;;;;;;5103212;28;20721;-80
2024/02/12 10:43:05;;;;;;;0.30;0.20;;;13.50;99.90;;;;;;5101421;28;21052;-78
2024/02/12 10:45:31;;;;;;;0.77;0.77;;;13.60;99.90;;;;;;5100172;28;20419;-80
2024/02/12 10:47:57;;;;;;;0.30;0.20;;;13.60;99.90;;;;;;5100815;28;20440;-80
2024/02/12 10:50:24;;;;;;;0.30;0.20;;;13.60;99.90;;;;;;5100138;28;20420;-81
2024/02/12 10:52:52;;;;;;;0.30;0.20;;;13.60;99.90;;;;;;5111202;27;20537;-78
2024/02/12 10:55:19;;;;;;;0.30;0.20;;;13.60;99.90;;;;;;5096314;28;20432;-80
2024/02/12 10:57:46;;;;;;;0.40;0.30;;;13.70;99.90;;;;;;5105330;27;20547;-80
2024/02/12 11:00:26;;;;;;;0.30;0.20;;;13.70;99.90;;;;;;5106680;27;20528;-78
2024/02/12 11:02:55;;;;;;;0.30;0.20;;;13.70;99.90;;;;;;5092829;28;20470;-78
2024/02/12 11:05:21;;;;;;;0.30;0.20;;;13.80;99.90;;;;;;5098887;28;20804;-80
2024/02/12 11:07:47;;;;;;;0.30;0.20;;;13.70;99.90;;;;;;5100517;28;20456;-77
2024/02/12 11:10:18;;;;;;;0.30;0.30;;;13.70;99.90;;;;;;5098241;28;20652;-80
2024/02/12 11:12:48;;;;;;;0.30;0.20;;;13.70;99.90;;;;;;5096664;28;21133;-80
2024/02/12 11:15:24;;;;;;;0.30;0.20;;;13.80;99.90;;;;;;5099495;27;20452;-77
2024/02/12 11:17:50;;;;;;;0.30;0.20;;;13.80;99.90;;;;;;5075496;28;20448;-77
2024/02/12 11:20:17;;;;;;;0.30;0.20;;;13.70;99.90;;;;;;5090868;28;20435;-79
2024/02/12 11:22:45;;;;;;;0.30;0.20;;;13.70;99.90;;;;;;5082772;28;20634;-77
2024/02/12 11:25:19;;;;;;;0.30;0.20;;;13.70;99.90;;;;;;5089776;28;20720;-79
2024/02/12 11:27:52;;;;;;;0.30;0.20;;;13.70;99.90;;;;;;5095780;28;20446;-78
2024/02/12 11:30:19;;;;;;;0.30;0.20;;;13.60;99.90;;;;;;5096923;28;20420;-78
2024/02/12 11:32:46;;;;;;;0.30;0.20;;;13.60;99.90;;;;;;5097888;28;20491;-78
2024/02/12 11:35:14;;;;;;;0.30;0.20;;;13.50;99.90;;;;;;5097053;28;20470;-78
2024/02/12 11:37:45;;;;;;;0.30;0.30;;;13.50;99.90;;;;;;5091998;28;21178;-79
2024/02/12 11:40:16;;;;;;;0.30;0.20;;;13.40;99.90;;;;;;5091379;28;20443;-77
2024/02/12 11:42:51;;;;;;;0.40;0.30;;;13.40;99.90;;;;;;5094547;28;20470;-79
2024/02/12 11:45:18;;;;;;;0.30;0.20;;;13.50;99.90;;;;;;5097938;28;20450;-77
2024/02/12 11:47:47;;;;;;;0.30;0.20;;;13.50;99.90;;;;;;5092387;28;20539;-77
2024/02/12 11:50:24;;;;;;;0.30;0.20;;;13.50;99.90;;;;;;5098004;28;20465;-79
2024/02/12 11:52:54;;;;;;;0.30;0.20;;;13.50;99.90;;;;;;5091935;28;20486;-78
2024/02/12 11:55:20;;;;;;;0.30;0.20;;;13.50;99.90;;;;;;5091327;28;20464;-77
2024/02/12 11:57:47;;;;;;;0.30;0.20;;;13.50;99.90;;;;;;5090360;28;20745;-79
2024/02/12 12:00:33;;;;;;;0.30;0.20;;;13.50;99.90;;;;;;5114849;27;20435;-78
2024/02/12 12:03:00;;;;;;;0.30;0.20;;;13.50;99.90;;;;;;5093670;28;20443;-77
2024/02/12 12:05:26;;;;;;;0.30;0.20;;;13.60;99.90;;;;;;5091945;28;20432;-79
2024/02/12 12:07:53;;;;;;;0.50;0.50;;;13.60;99.90;;;;;;5098696;28;20964;-77
2024/02/12 12:10:27;;;;;;;0.30;0.20;;;13.60;99.90;;;;;;5091233;28;20594;-79
2024/02/12 12:12:57;;;;;;;0.30;0.20;;;13.60;99.90;;;;;;5092609;28;20486;-79
2024/02/12 12:15:23;;;;;;;0.30;0.20;;;13.60;99.90;;;;;;5093585;28;20456;-76
2024/02/12 12:17:49;;;;;;;0.30;0.20;;;13.60;99.90;;;;;;5096012;28;20515;-78
2024/02/12 12:20:18;;;;;;;0.30;0.20;;;13.60;99.90;;;;;;5094738;28;20180;-78
2024/02/12 12:22:47;;;;;;;0.30;0.20;;;13.60;99.90;;;;;;5092572;28;20629;-79
2024/02/12 12:25:13;;;;;;;0.30;0.20;;;13.60;99.90;;;;;;5091858;28;20767;-77
2024/02/12 12:27:39;;;;;;;0.93;0.87;;;13.60;99.90;;;;;;5092454;28;20498;-77
2024/02/12 12:30:18;;;;;;;0.30;0.20;;;13.60;99.90;;;;;;5097867;28;20980;-78
2024/02/12 12:32:49;;;;;;;0.30;0.30;;;13.60;99.90;;;;;;5089999;28;20515;-79
2024/02/12 12:35:15;;;;;;;0.30;0.20;;;13.60;99.90;;;;;;5096266;28;20765;-78
2024/02/12 12:37:41;;;;;;;0.30;0.20;;;13.70;99.90;;;;;;5093840;28;20810;-77
2024/02/12 12:40:10;;;;;;;0.30;0.20;;;13.70;99.90;;;;;;5094472;28;20439;-77
2024/02/12 12:42:38;;;;;;;0.30;0.20;;;13.70;99.90;;;;;;5095043;28;20460;-77
2024/02/12 12:45:07;;;;;;;0.30;0.20;;;13.70;99.90;;;;;;5091587;28;20832;-78
2024/02/12 12:47:34;;;;;;;0.30;0.20;;;13.70;99.90;;;;;;5088932;28;20863;-79
2024/02/12 12:50:01;;;;;;;0.30;0.20;;;13.70;99.90;;;;;;5089321;28;20499;-79
2024/02/12 12:52:30;;;;;;;0.30;0.20;;;13.70;99.90;;;;;;5121683;27;20464;-79
2024/02/12 12:54:56;;;;;;;0.30;0.20;;;13.70;99.90;;;;;;5094213;28;20832;-79
2024/02/12 12:57:22;;;;;;;0.30;0.20;;;13.70;99.90;;;;;;5095694;28;20940;-79
2024/02/12 12:59:48;;;;;;;0.30;0.30;;;13.70;99.90;;;;;;5086168;28;20424;-77
2024/02/12 13:02:13;;;;;;;0.30;0.20;;;13.60;99.90;;;;;;5096060;28;20511;-79
2024/02/12 13:04:39;;;;;;;0.40;0.40;;;13.60;99.90;;;;;;5092840;28;20584;-78